Time;durP1;ratioP1;P1;durP2;ratioP2;P2;SDS_P1;SDS_P2;PMS_P1;PMS_P2;Temp;Humidity;BMP_temperature;BMP_pressure;BME280_temperature;BME280_humidity;BME280_pressure;Samples;Min_cycle;Max_cycle;Signal;HPM_P1;HPM_P2
2023/07/07 00:00:28;;;;;;;2.78;1.73;;;;;;;;;;7298778;19;140586;-72
2023/07/07 00:02:55;;;;;;;2.75;1.60;;;;;;;;;;7298331;19;140983;-73
2023/07/07 00:05:23;;;;;;;3.15;1.80;;;;;;;;;;7298798;19;141948;-72
2023/07/07 00:07:50;;;;;;;1.88;1.55;;;;;;;;;;7303892;19;140563;-72
2023/07/07 00:10:18;;;;;;;2.97;1.60;;;;;;;;;;7306033;19;140447;-72
2023/07/07 00:12:46;;;;;;;2.22;1.60;;;;;;;;;;7306418;19;142031;-72
2023/07/07 00:15:13;;;;;;;3.35;1.73;;;;;;;;;;7306444;19;141020;-73
2023/07/07 00:17:41;;;;;;;2.83;1.73;;;;;;;;;;7305618;19;140763;-73
2023/07/07 00:20:14;;;;;;;3.25;2.00;;;;;;;;;;7306825;19;140743;-72
2023/07/07 00:22:41;;;;;;;3.42;1.77;;;;;;;;;;7306625;19;141183;-72
2023/07/07 00:25:09;;;;;;;2.75;1.70;;;;;;;;;;7306235;19;141173;-73
2023/07/07 00:27:37;;;;;;;4.30;1.80;;;;;;;;;;7306455;19;140539;-72
2023/07/07 00:30:05;;;;;;;3.35;1.80;;;;;;;;;;7305776;19;141024;-72
2023/07/07 00:32:33;;;;;;;2.97;1.73;;;;;;;;;;7304840;19;142010;-72
2023/07/07 00:35:01;;;;;;;2.53;1.80;;;;;;;;;;7305360;19;142511;-70
2023/07/07 00:37:28;;;;;;;2.42;1.55;;;;;;;;;;7306036;19;140394;-72
2023/07/07 00:39:55;;;;;;;1.88;1.52;;;;;;;;;;7305281;19;140692;-71
2023/07/07 00:42:22;;;;;;;1.80;1.55;;;;;;;;;;7305215;19;142266;-72
2023/07/07 00:45:04;;;;;;;3.05;1.60;;;;;;;;;;7303991;19;142087;-71
2023/07/07 00:47:34;;;;;;;1.85;1.63;;;;;;;;;;7305029;19;140502;-73
2023/07/07 00:50:02;;;;;;;2.57;1.70;;;;;;;;;;7306396;19;140691;-73
2023/07/07 00:52:29;;;;;;;1.98;1.48;;;;;;;;;;7304229;19;140757;-74
2023/07/07 00:54:57;;;;;;;2.42;1.65;;;;;;;;;;7304772;19;142223;-73
2023/07/07 00:57:24;;;;;;;2.47;1.77;;;;;;;;;;7304998;19;140539;-73
2023/07/07 00:59:52;;;;;;;1.98;1.70;;;;;;;;;;7304832;19;140366;-74
2023/07/07 01:02:25;;;;;;;2.47;1.80;;;;;;;;;;7304909;19;142197;-73
2023/07/07 01:04:58;;;;;;;1.73;1.60;;;;;;;;;;7304367;19;142660;-73
2023/07/07 01:07:31;;;;;;;2.55;1.95;;;;;;;;;;7304671;19;140671;-73
2023/07/07 01:09:58;;;;;;;2.53;1.83;;;;;;;;;;7303238;19;140602;-73
2023/07/07 01:12:26;;;;;;;2.60;1.83;;;;;;;;;;7304519;19;141412;-73
2023/07/07 01:14:53;;;;;;;3.70;2.00;;;;;;;;;;7304282;19;142643;-74
2023/07/07 01:17:32;;;;;;;2.17;1.60;;;;;;;;;;7302586;19;140647;-74
2023/07/07 01:20:21;;;;;;;3.85;2.20;;;;;;;;;;7302765;19;141488;-73
2023/07/07 01:23:08;;;;;;;2.80;1.80;;;;;;;;;;7304428;19;141999;-74
2023/07/07 01:25:41;;;;;;;3.67;2.00;;;;;;;;;;7304641;19;141862;-73
2023/07/07 01:28:33;;;;;;;2.90;2.10;;;;;;;;;;7303976;19;140521;-73
2023/07/07 01:31:09;;;;;;;2.88;2.17;;;;;;;;;;7304544;19;140591;-73
2023/07/07 01:33:37;;;;;;;2.85;2.05;;;;;;;;;;7303553;19;140634;-73
2023/07/07 01:36:05;;;;;;;3.97;2.17;;;;;;;;;;7303341;19;141124;-73
2023/07/07 01:38:39;;;;;;;3.22;2.00;;;;;;;;;;7303598;19;140916;-73
2023/07/07 01:41:20;;;;;;;3.85;1.90;;;;;;;;;;7303997;19;140792;-74
2023/07/07 01:44:08;;;;;;;2.85;2.00;;;;;;;;;;7303446;19;141498;-73
2023/07/07 01:46:35;;;;;;;2.92;2.20;;;;;;;;;;7303691;19;140781;-74
2023/07/07 01:49:24;;;;;;;2.67;2.00;;;;;;;;;;7303010;19;140694;-73
2023/07/07 01:52:04;;;;;;;3.63;2.15;;;;;;;;;;7304063;19;140518;-74
2023/07/07 01:54:35;;;;;;;3.60;2.17;;;;;;;;;;7303262;19;140559;-74
2023/07/07 01:57:04;;;;;;;3.58;1.92;;;;;;;;;;7302863;19;140662;-73
2023/07/07 01:59:35;;;;;;;3.00;1.73;;;;;;;;;;7303163;19;140755;-73
2023/07/07 02:02:04;;;;;;;4.20;2.28;;;;;;;;;;7303372;19;140317;-74
2023/07/07 02:04:31;;;;;;;3.15;2.10;;;;;;;;;;7301596;19;141542;-73
2023/07/07 02:06:59;;;;;;;2.58;2.20;;;;;;;;;;7303077;19;141829;-73
2023/07/07 02:09:27;;;;;;;2.42;1.63;;;;;;;;;;7302718;19;140485;-72
2023/07/07 02:11:54;;;;;;;3.10;2.15;;;;;;;;;;7302606;19;140411;-73
2023/07/07 02:14:21;;;;;;;3.53;2.30;;;;;;;;;;7302466;19;141316;-73
2023/07/07 02:16:49;;;;;;;2.88;2.05;;;;;;;;;;7302520;19;142752;-73
2023/07/07 02:19:17;;;;;;;2.42;2.03;;;;;;;;;;7300352;19;140746;-73
2023/07/07 02:21:44;;;;;;;3.63;2.40;;;;;;;;;;7301407;19;140774;-72
2023/07/07 02:24:12;;;;;;;3.78;2.53;;;;;;;;;;7303023;19;142164;-73
2023/07/07 02:26:39;;;;;;;2.70;2.10;;;;;;;;;;7302272;19;142786;-71
2023/07/07 02:29:06;;;;;;;2.83;2.20;;;;;;;;;;7301652;19;140884;-72
2023/07/07 02:31:33;;;;;;;4.80;2.40;;;;;;;;;;7301396;19;140442;-71
2023/07/07 02:34:01;;;;;;;3.65;2.60;;;;;;;;;;7301349;19;142327;-72
2023/07/07 02:36:28;;;;;;;2.90;1.98;;;;;;;;;;7301844;19;142031;-72
2023/07/07 02:38:55;;;;;;;3.63;2.25;;;;;;;;;;7300135;19;140825;-71
2023/07/07 02:41:22;;;;;;;3.28;2.60;;;;;;;;;;7301488;19;140507;-71
2023/07/07 02:43:50;;;;;;;3.63;2.13;;;;;;;;;;7301996;19;140472;-71
2023/07/07 02:46:20;;;;;;;3.15;2.30;;;;;;;;;;7301377;19;143865;-71
2023/07/07 02:48:47;;;;;;;3.42;2.55;;;;;;;;;;7300998;19;140993;-71
2023/07/07 02:51:15;;;;;;;3.75;2.65;;;;;;;;;;7301617;19;140628;-72
2023/07/07 02:53:42;;;;;;;3.35;2.47;;;;;;;;;;7301006;19;142266;-73
2023/07/07 02:56:09;;;;;;;3.97;2.53;;;;;;;;;;7301007;19;141952;-73
2023/07/07 02:58:36;;;;;;;3.05;2.40;;;;;;;;;;7301169;19;140680;-73
2023/07/07 03:01:18;;;;;;;4.30;2.67;;;;;;;;;;7302060;19;140859;-72
2023/07/07 03:03:49;;;;;;;3.75;2.53;;;;;;;;;;7300140;19;141699;-73
2023/07/07 03:06:21;;;;;;;3.85;2.45;;;;;;;;;;7300780;19;142764;-72
2023/07/07 03:08:49;;;;;;;4.25;2.50;;;;;;;;;;7300831;19;140821;-73
2023/07/07 03:11:19;;;;;;;4.28;2.50;;;;;;;;;;7301191;19;140424;-73
2023/07/07 03:13:48;;;;;;;3.30;2.40;;;;;;;;;;7300681;19;141273;-73
2023/07/07 03:16:21;;;;;;;3.92;3.00;;;;;;;;;;7300324;19;141995;-72
2023/07/07 03:18:51;;;;;;;4.07;2.70;;;;;;;;;;7300825;19;140708;-72
2023/07/07 03:21:20;;;;;;;3.33;2.45;;;;;;;;;;7300328;19;140570;-72
2023/07/07 03:23:50;;;;;;;3.50;2.90;;;;;;;;;;7300577;19;140555;-72
2023/07/07 03:26:19;;;;;;;3.97;2.42;;;;;;;;;;7300528;19;140799;-72
2023/07/07 03:28:47;;;;;;;3.88;2.60;;;;;;;;;;7300492;19;140520;-72
2023/07/07 03:31:17;;;;;;;3.10;2.55;;;;;;;;;;7300488;19;140607;-72
2023/07/07 03:33:45;;;;;;;5.10;2.80;;;;;;;;;;7299511;19;141084;-72
2023/07/07 03:36:13;;;;;;;4.45;2.72;;;;;;;;;;7299774;19;141321;-71
2023/07/07 03:38:41;;;;;;;3.80;2.47;;;;;;;;;;7299817;19;140447;-72
2023/07/07 03:41:16;;;;;;;3.97;2.85;;;;;;;;;;7299706;19;140677;-73
2023/07/07 03:43:46;;;;;;;3.20;2.55;;;;;;;;;;7307415;19;141543;-72
2023/07/07 03:46:17;;;;;;;5.70;2.93;;;;;;;;;;7307244;19;142130;-72
2023/07/07 03:48:47;;;;;;;3.95;3.28;;;;;;;;;;7306361;19;140649;-72
2023/07/07 03:51:16;;;;;;;4.97;3.00;;;;;;;;;;7305416;19;140723;-72
2023/07/07 03:53:44;;;;;;;4.90;3.28;;;;;;;;;;7307136;19;140511;-72
2023/07/07 03:56:13;;;;;;;4.05;2.97;;;;;;;;;;7306689;19;140727;-72
2023/07/07 03:58:41;;;;;;;4.20;2.75;;;;;;;;;;7307382;19;140461;-73
2023/07/07 04:01:13;;;;;;;3.10;2.78;;;;;;;;;;7305717;19;140858;-72
2023/07/07 04:03:42;;;;;;;3.95;2.80;;;;;;;;;;7305843;19;141334;-72
2023/07/07 04:06:13;;;;;;;4.22;2.90;;;;;;;;;;7306589;19;142504;-71
2023/07/07 04:08:41;;;;;;;3.03;2.70;;;;;;;;;;7306629;19;140616;-72
2023/07/07 04:11:09;;;;;;;3.42;2.78;;;;;;;;;;7306710;19;140785;-72
2023/07/07 04:13:40;;;;;;;4.10;2.75;;;;;;;;;;7306190;19;141522;-72
2023/07/07 04:16:13;;;;;;;4.40;3.05;;;;;;;;;;7305281;19;142044;-73
2023/07/07 04:18:41;;;;;;;5.28;2.83;;;;;;;;;;7306547;19;140540;-73
2023/07/07 04:21:14;;;;;;;3.83;2.92;;;;;;;;;;7306605;19;140659;-73
2023/07/07 04:23:44;;;;;;;3.83;2.80;;;;;;;;;;7305788;19;141276;-78
2023/07/07 04:26:12;;;;;;;4.25;2.90;;;;;;;;;;7306624;19;141101;-79
2023/07/07 04:28:40;;;;;;;3.97;2.85;;;;;;;;;;7306220;19;140746;-80
2023/07/07 04:31:10;;;;;;;4.38;3.10;;;;;;;;;;7306144;19;140592;-78
2023/07/07 04:33:40;;;;;;;4.47;2.83;;;;;;;;;;7305626;19;141666;-77
2023/07/07 04:36:10;;;;;;;3.95;2.53;;;;;;;;;;7305093;19;141896;-79
2023/07/07 04:38:38;;;;;;;3.08;2.53;;;;;;;;;;7305019;19;140850;-79
2023/07/07 04:41:09;;;;;;;3.60;2.88;;;;;;;;;;7305752;19;140595;-79
2023/07/07 04:43:40;;;;;;;3.85;2.60;;;;;;;;;;7305816;19;140825;-80
2023/07/07 04:46:09;;;;;;;5.03;2.70;;;;;;;;;;7305079;19;142573;-79
2023/07/07 04:48:37;;;;;;;4.47;3.03;;;;;;;;;;7305351;19;140712;-76
2023/07/07 04:51:08;;;;;;;5.05;2.72;;;;;;;;;;7304469;19;140470;-76
2023/07/07 04:53:36;;;;;;;3.83;2.73;;;;;;;;;;7305081;19;141772;-79
2023/07/07 04:56:17;;;;;;;5.45;2.95;;;;;;;;;;7304347;19;142073;-81
2023/07/07 04:58:46;;;;;;;;;;;;;;;;;;7305359;19;140756;-77
2023/07/07 05:01:20;;;;;;;3.85;2.70;;;;;;;;;;7306367;19;143718;-73
2023/07/07 05:03:51;;;;;;;5.45;2.90;;;;;;;;;;7304794;19;141501;-73
2023/07/07 05:06:20;;;;;;;3.78;2.90;;;;;;;;;;7302660;19;140712;-73
2023/07/07 05:08:47;;;;;;;3.78;2.80;;;;;;;;;;7304168;19;140675;-73
2023/07/07 05:11:18;;;;;;;4.65;3.08;;;;;;;;;;7304498;19;140611;-73
2023/07/07 05:13:46;;;;;;;3.85;3.20;;;;;;;;;;7303780;19;141495;-73
2023/07/07 05:16:17;;;;;;;3.65;3.00;;;;;;;;;;7304795;19;140728;-73
2023/07/07 05:18:44;;;;;;;5.82;3.10;;;;;;;;;;7304631;19;140608;-73
2023/07/07 05:21:13;;;;;;;5.38;2.85;;;;;;;;;;7303536;19;140569;-72
2023/07/07 05:23:40;;;;;;;3.50;2.80;;;;;;;;;;7304207;19;142019;-71
2023/07/07 05:26:08;;;;;;;4.70;2.95;;;;;;;;;;7303963;19;142743;-73
2023/07/07 05:28:35;;;;;;;4.65;3.00;;;;;;;;;;7304162;19;140600;-75
2023/07/07 05:31:06;;;;;;;3.92;3.10;;;;;;;;;;7304019;19;140584;-76
2023/07/07 05:33:38;;;;;;;4.50;3.20;;;;;;;;;;7301952;19;141896;-76
2023/07/07 05:36:10;;;;;;;3.33;2.92;;;;;;;;;;7303634;19;142179;-76
2023/07/07 05:38:40;;;;;;;3.55;2.85;;;;;;;;;;7301918;19;141084;-74
2023/07/07 05:41:09;;;;;;;4.22;3.05;;;;;;;;;;7303957;19;140606;-74
2023/07/07 05:43:36;;;;;;;4.35;3.20;;;;;;;;;;7303067;19;141676;-75
2023/07/07 05:46:07;;;;;;;4.15;3.13;;;;;;;;;;7301884;19;140996;-75
2023/07/07 05:48:36;;;;;;;5.03;3.28;;;;;;;;;;7303633;19;140677;-74
2023/07/07 05:51:07;;;;;;;5.07;3.10;;;;;;;;;;7303078;19;140806;-74
2023/07/07 05:53:40;;;;;;;3.38;3.00;;;;;;;;;;7301614;19;142079;-75
2023/07/07 05:56:15;;;;;;;5.55;3.40;;;;;;;;;;7302280;19;141906;-76
2023/07/07 05:58:42;;;;;;;6.00;4.00;;;;;;;;;;7302769;19;140447;-74
2023/07/07 06:01:13;;;;;;;5.13;3.60;;;;;;;;;;7303480;19;140562;-75
2023/07/07 06:03:42;;;;;;;5.35;3.70;;;;;;;;;;7302581;19;141941;-75
2023/07/07 06:06:11;;;;;;;5.75;3.55;;;;;;;;;;7300155;19;141783;-76
2023/07/07 06:08:40;;;;;;;6.07;4.00;;;;;;;;;;7302519;19;140609;-75
2023/07/07 06:11:09;;;;;;;5.25;3.75;;;;;;;;;;7303401;19;140568;-75
2023/07/07 06:13:36;;;;;;;4.07;3.67;;;;;;;;;;7302664;19;142156;-75
2023/07/07 06:16:17;;;;;;;4.93;3.67;;;;;;;;;;7301609;19;141813;-76
2023/07/07 06:18:45;;;;;;;5.07;3.90;;;;;;;;;;7302888;19;140486;-76
2023/07/07 06:21:15;;;;;;;5.07;3.75;;;;;;;;;;7301104;19;140694;-75
2023/07/07 06:23:42;;;;;;;5.78;4.30;;;;;;;;;;7302401;19;140860;-75
2023/07/07 06:26:09;;;;;;;5.07;4.05;;;;;;;;;;7301852;19;142200;-75
2023/07/07 06:28:36;;;;;;;6.28;4.30;;;;;;;;;;7302119;19;140535;-76
2023/07/07 06:31:04;;;;;;;6.15;4.50;;;;;;;;;;7301942;19;140472;-75
2023/07/07 06:33:42;;;;;;;6.45;4.43;;;;;;;;;;7301969;19;141189;-77
2023/07/07 06:36:10;;;;;;;4.95;4.30;;;;;;;;;;7299086;19;142707;-76
2023/07/07 06:38:37;;;;;;;5.18;4.03;;;;;;;;;;7300610;19;140849;-76
2023/07/07 06:44:10;;;;;;;4.65;3.72;;;;;;;;;;7301089;19;140547;-76
2023/07/07 06:46:40;;;;;;;5.63;4.53;;;;;;;;;;7299478;19;141320;-76
2023/07/07 06:49:21;;;;;;;5.22;3.97;;;;;;;;;;7304507;19;140948;-75
2023/07/07 06:51:48;;;;;;;4.60;4.00;;;;;;;;;;7299791;19;141886;-76
2023/07/07 06:54:15;;;;;;;5.22;3.97;;;;;;;;;;7299528;19;142868;-76
2023/07/07 06:56:43;;;;;;;6.25;4.13;;;;;;;;;;7299456;19;142761;-77
2023/07/07 06:59:10;;;;;;;6.07;4.30;;;;;;;;;;7299731;19;140673;-74
2023/07/07 07:01:39;;;;;;;5.10;3.95;;;;;;;;;;7298713;19;140623;-73
2023/07/07 07:04:07;;;;;;;6.65;4.43;;;;;;;;;;7300246;19;143096;-73
2023/07/07 07:06:35;;;;;;;4.20;3.78;;;;;;;;;;7298666;19;143512;-74
2023/07/07 07:09:02;;;;;;;4.88;3.75;;;;;;;;;;7299258;19;140740;-73
2023/07/07 07:11:30;;;;;;;4.50;3.70;;;;;;;;;;7297839;19;140709;-73
2023/07/07 07:13:57;;;;;;;5.82;4.78;;;;;;;;;;7298318;19;140742;-72
2023/07/07 07:16:24;;;;;;;4.90;3.70;;;;;;;;;;7300088;19;142056;-73
2023/07/07 07:18:52;;;;;;;4.85;4.10;;;;;;;;;;7299602;19;140604;-73
2023/07/07 07:21:20;;;;;;;5.95;4.50;;;;;;;;;;7298089;19;140737;-74
2023/07/07 07:23:49;;;;;;;6.00;4.30;;;;;;;;;;7297818;19;142493;-73
2023/07/07 07:26:17;;;;;;;5.75;4.22;;;;;;;;;;7298687;19;141842;-73
2023/07/07 07:28:45;;;;;;;9.18;5.40;;;;;;;;;;7300429;19;140841;-72
2023/07/07 07:31:12;;;;;;;7.32;4.80;;;;;;;;;;7299610;19;140639;-72
2023/07/07 07:33:45;;;;;;;8.82;6.22;;;;;;;;;;7297238;19;141836;-73
2023/07/07 07:36:20;;;;;;;10.73;5.78;;;;;;;;;;7297718;19;140842;-73
2023/07/07 07:38:47;;;;;;;7.40;5.50;;;;;;;;;;7299396;19;140428;-73
2023/07/07 07:41:15;;;;;;;8.35;5.95;;;;;;;;;;7297643;19;140665;-73
2023/07/07 07:43:43;;;;;;;7.63;5.40;;;;;;;;;;7296892;19;142402;-73
2023/07/07 07:46:10;;;;;;;11.70;7.40;;;;;;;;;;7298392;19;142938;-73
2023/07/07 07:48:38;;;;;;;10.52;6.20;;;;;;;;;;7298852;19;140575;-73
2023/07/07 07:51:05;;;;;;;8.57;5.80;;;;;;;;;;7299299;19;140746;-73
2023/07/07 07:53:52;;;;;;;8.23;5.78;;;;;;;;;;7296566;19;143525;-74
2023/07/07 07:56:20;;;;;;;7.00;5.43;;;;;;;;;;7296581;19;142672;-71
2023/07/07 07:58:48;;;;;;;11.88;7.53;;;;;;;;;;7297321;19;140565;-74
2023/07/07 08:01:18;;;;;;;10.43;6.80;;;;;;;;;;7297366;19;140641;-72
2023/07/07 08:03:46;;;;;;;10.90;6.63;;;;;;;;;;7297389;19;141479;-73
2023/07/07 08:06:13;;;;;;;8.57;6.30;;;;;;;;;;7298041;19;140827;-73
2023/07/07 08:08:41;;;;;;;10.45;6.75;;;;;;;;;;7297510;19;140887;-73
2023/07/07 08:11:12;;;;;;;8.13;5.70;;;;;;;;;;7299491;19;140672;-73
2023/07/07 08:13:40;;;;;;;9.48;6.43;;;;;;;;;;7298926;19;141883;-73
2023/07/07 08:16:10;;;;;;;9.48;6.50;;;;;;;;;;7296936;19;141987;-73
2023/07/07 08:18:38;;;;;;;8.18;6.30;;;;;;;;;;7297148;19;141095;-73
2023/07/07 08:21:07;;;;;;;10.02;6.25;;;;;;;;;;7298801;19;140748;-73
2023/07/07 08:23:34;;;;;;;8.88;6.30;;;;;;;;;;7298217;19;141435;-72
2023/07/07 08:26:01;;;;;;;8.02;6.20;;;;;;;;;;7298871;19;142041;-73
2023/07/07 08:28:31;;;;;;;;;;;;;;;;;;7301618;19;140665;-73
2023/07/07 08:31:01;;;;;;;9.18;6.32;;;;;;;;;;7304881;19;140780;-73
2023/07/07 08:33:28;;;;;;;7.80;6.07;;;;;;;;;;7305163;19;141389;-73
2023/07/07 08:35:56;;;;;;;8.65;6.20;;;;;;;;;;7304395;19;141342;-74
2023/07/07 08:38:23;;;;;;;7.72;5.72;;;;;;;;;;7303916;19;140576;-73
2023/07/07 08:40:53;;;;;;;10.88;6.28;;;;;;;;;;7305447;19;140525;-76
2023/07/07 08:43:22;;;;;;;8.68;6.13;;;;;;;;;;7303231;19;142553;-77
2023/07/07 08:46:18;;;;;;;10.98;6.20;;;;;;;;;;7304623;19;141861;-75
2023/07/07 08:48:53;;;;;;;8.63;6.63;;;;;;;;;;7304825;19;140700;-78
2023/07/07 08:51:43;;;;;;;9.20;6.20;;;;;;;;;;7303235;19;140639;-76
2023/07/07 08:54:13;;;;;;;9.65;5.80;;;;;;;;;;7303691;19;141938;-80
2023/07/07 08:57:09;;;;;;;9.07;5.63;;;;;;;;;;7304537;19;142546;-78
2023/07/07 09:00:03;;;;;;;9.48;5.97;;;;;;;;;;7303371;19;140682;-76
2023/07/07 09:02:51;;;;;;;7.53;6.13;;;;;;;;;;7305248;19;140505;-82
2023/07/07 09:05:56;;;;;;;11.07;6.25;;;;;;;;;;7306159;19;142282;-78
2023/07/07 09:08:48;;;;;;;9.23;6.07;;;;;;;;;;7304955;19;140729;-79
2023/07/07 09:11:16;;;;;;;9.35;5.93;;;;;;;;;;7304467;19;140514;-77
2023/07/07 09:13:45;;;;;;;9.55;5.82;;;;;;;;;;7304782;19;140828;-78
2023/07/07 09:16:36;;;;;;;8.50;5.97;;;;;;;;;;7305528;19;140496;-81
2023/07/07 09:19:11;;;;;;;8.48;5.53;;;;;;;;;;7303680;19;143171;-81
2023/07/07 09:21:56;;;;;;;7.70;5.25;;;;;;;;;;7302441;19;140539;-78
2023/07/07 09:24:49;;;;;;;8.68;5.68;;;;;;;;;;7302447;19;140563;-77
2023/07/07 09:27:21;;;;;;;7.10;5.35;;;;;;;;;;7304662;19;140665;-78
2023/07/07 09:29:54;;;;;;;6.95;5.30;;;;;;;;;;7304162;19;140703;-79
2023/07/07 09:32:25;;;;;;;7.70;5.00;;;;;;;;;;7303891;19;141044;-78
2023/07/07 09:34:54;;;;;;;5.72;4.70;;;;;;;;;;7303980;19;140558;-78
2023/07/07 09:37:34;;;;;;;7.93;5.10;;;;;;;;;;7302891;19;140854;-80
2023/07/07 09:40:08;;;;;;;7.00;4.72;;;;;;;;;;7298677;19;141808;-79
2023/07/07 09:42:57;;;;;;;5.65;4.65;;;;;;;;;;7301485;19;140511;-79
2023/07/07 09:45:41;;;;;;;6.47;4.68;;;;;;;;;;7302931;19;140427;-80
2023/07/07 09:48:13;;;;;;;5.85;4.70;;;;;;;;;;7300891;19;142693;-79
2023/07/07 09:51:13;;;;;;;7.45;4.97;;;;;;;;;;7301644;19;141924;-77
2023/07/07 09:53:41;;;;;;;7.03;4.53;;;;;;;;;;7300865;19;140750;-77
2023/07/07 09:56:15;;;;;;;7.13;4.43;;;;;;;;;;7303963;19;140513;-76
2023/07/07 09:58:50;;;;;;;5.30;4.22;;;;;;;;;;7302100;19;140852;-76
2023/07/07 10:01:18;;;;;;;6.78;4.22;;;;;;;;;;7302399;19;142048;-80
2023/07/07 10:03:48;;;;;;;5.05;4.35;;;;;;;;;;7302052;19;140631;-79
2023/07/07 10:06:31;;;;;;;5.45;4.07;;;;;;;;;;7300672;19;140610;-83
2023/07/07 10:09:00;;;;;;;5.68;4.30;;;;;;;;;;7302435;19;140955;-83
2023/07/07 10:11:33;;;;;;;5.80;4.20;;;;;;;;;;7301796;19;140774;-86
2023/07/07 10:14:21;;;;;;;5.50;4.43;;;;;;;;;;7302847;19;140327;-75
2023/07/07 10:16:54;;;;;;;5.25;4.03;;;;;;;;;;7302123;19;140806;-76
2023/07/07 10:19:23;;;;;;;5.15;4.05;;;;;;;;;;7300442;19;141421;-84
2023/07/07 10:21:51;;;;;;;4.82;4.10;;;;;;;;;;7297427;19;141661;-84
2023/07/07 10:24:19;;;;;;;5.07;3.83;;;;;;;;;;7297920;19;140537;-84
2023/07/07 10:26:50;;;;;;;4.07;3.55;;;;;;;;;;7300090;19;140469;-87
2023/07/07 10:29:39;;;;;;;5.85;4.15;;;;;;;;;;7301468;19;143272;-82
2023/07/07 10:32:12;;;;;;;4.78;3.85;;;;;;;;;;7302178;19;141658;-82
2023/07/07 10:34:46;;;;;;;5.07;3.92;;;;;;;;;;7300041;19;140495;-85
2023/07/07 10:37:25;;;;;;;5.07;3.90;;;;;;;;;;7300029;19;140557;-84
2023/07/07 10:40:55;;;;;;;4.43;3.88;;;;;;;;;;7302200;19;140452;-85
2023/07/07 10:43:24;;;;;;;4.17;3.77;;;;;;;;;;7298348;19;141699;-84
2023/07/07 10:45:53;;;;;;;4.40;4.00;;;;;;;;;;7299606;19;140637;-82
2023/07/07 10:48:20;;;;;;;4.63;4.00;;;;;;;;;;7301814;19;140761;-78
2023/07/07 10:51:27;;;;;;;4.88;4.15;;;;;;;;;;7300893;19;140933;-84
2023/07/07 10:54:00;;;;;;;4.53;3.72;;;;;;;;;;7301984;19;141080;-84
2023/07/07 10:56:36;;;;;;;4.65;4.25;;;;;;;;;;7301430;19;140452;-82
2023/07/07 10:59:25;;;;;;;4.53;3.97;;;;;;;;;;7300039;19;140517;-83
2023/07/07 11:02:18;;;;;;;7.00;4.40;;;;;;;;;;7298860;19;141622;-84
2023/07/07 11:05:13;;;;;;;4.57;4.10;;;;;;;;;;7301148;19;141328;-84
2023/07/07 11:07:53;;;;;;;4.63;4.05;;;;;;;;;;7300280;19;140389;-77
2023/07/07 11:10:40;;;;;;;7.65;4.10;;;;;;;;;;7300255;19;140695;-79
2023/07/07 11:13:33;;;;;;;4.13;3.67;;;;;;;;;;7301588;19;142288;-82
2023/07/07 11:16:29;;;;;;;4.13;3.60;;;;;;;;;;7300311;19;141155;-82
2023/07/07 11:19:18;;;;;;;4.10;3.70;;;;;;;;;;7302201;19;140615;-83
2023/07/07 11:22:00;;;;;;;4.20;3.70;;;;;;;;;;7299207;19;140720;-81
2023/07/07 11:24:46;;;;;;;4.35;3.92;;;;;;;;;;7298390;19;140958;-81
2023/07/07 11:27:37;;;;;;;5.97;4.05;;;;;;;;;;7297560;19;141878;-81
2023/07/07 11:30:24;;;;;;;5.95;4.00;;;;;;;;;;7298409;19;142006;-79
2023/07/07 11:33:17;;;;;;;4.38;3.97;;;;;;;;;;7298931;19;141609;-81
2023/07/07 11:35:51;;;;;;;4.55;3.97;;;;;;;;;;7297568;19;140607;-81
2023/07/07 11:38:31;;;;;;;4.97;3.65;;;;;;;;;;7298177;19;140852;-81
2023/07/07 11:41:03;;;;;;;4.88;3.92;;;;;;;;;;7300030;19;140394;-82
2023/07/07 11:43:46;;;;;;;4.30;3.90;;;;;;;;;;7298801;19;140636;-81
2023/07/07 11:46:26;;;;;;;4.57;4.18;;;;;;;;;;7297390;19;142089;-80
2023/07/07 11:49:15;;;;;;;4.22;3.78;;;;;;;;;;7297739;19;141019;-78
2023/07/07 11:52:13;;;;;;;6.28;4.10;;;;;;;;;;7298107;19;140748;-79
2023/07/07 11:55:04;;;;;;;4.10;3.70;;;;;;;;;;7299645;19;140573;-78
2023/07/07 11:57:41;;;;;;;4.63;3.58;;;;;;;;;;7297851;19;141490;-78
2023/07/07 12:00:46;;;;;;;4.82;3.90;;;;;;;;;;7297546;19;141249;-78
2023/07/07 12:03:35;;;;;;;3.72;3.42;;;;;;;;;;7300901;19;141008;-77
2023/07/07 12:06:32;;;;;;;4.90;3.77;;;;;;;;;;7304029;19;141439;-79
2023/07/07 12:09:15;;;;;;;5.00;3.90;;;;;;;;;;7302644;19;141569;-79
2023/07/07 12:11:57;;;;;;;4.00;3.60;;;;;;;;;;7305135;19;140795;-80
2023/07/07 12:14:37;;;;;;;5.47;3.65;;;;;;;;;;7304217;19;140720;-78
2023/07/07 12:17:09;;;;;;;4.70;3.90;;;;;;;;;;7304488;19;140654;-79
2023/07/07 12:19:46;;;;;;;4.38;3.63;;;;;;;;;;7303688;19;140897;-77
2023/07/07 12:22:19;;;;;;;4.78;3.90;;;;;;;;;;7304849;19;141396;-77
2023/07/07 12:24:56;;;;;;;4.78;4.18;;;;;;;;;;7304659;19;140684;-76
2023/07/07 12:27:33;;;;;;;4.00;3.63;;;;;;;;;;7305488;19;140692;-78
2023/07/07 12:30:02;;;;;;;4.72;4.00;;;;;;;;;;7303663;19;141982;-77
2023/07/07 12:32:30;;;;;;;4.18;3.70;;;;;;;;;;7303645;19;141567;-78
2023/07/07 12:35:06;;;;;;;5.00;4.15;;;;;;;;;;7303730;19;140440;-78
2023/07/07 12:37:35;;;;;;;5.20;4.00;;;;;;;;;;7303683;19;140756;-77
2023/07/07 12:40:09;;;;;;;4.75;4.22;;;;;;;;;;7304911;19;141503;-76
2023/07/07 12:42:39;;;;;;;4.57;4.10;;;;;;;;;;7303563;19;143241;-81
2023/07/07 12:45:17;;;;;;;5.80;4.20;;;;;;;;;;7304285;19;141557;-80
2023/07/07 12:51:10;;;;;;;5.78;4.20;;;;;;;;;;7302229;19;140874;-79
2023/07/07 12:53:47;;;;;;;4.53;3.85;;;;;;;;;;7303906;19;142724;-84
2023/07/07 12:56:20;;;;;;;4.47;4.00;;;;;;;;;;7303298;19;140850;-85
2023/07/07 12:58:49;;;;;;;5.38;3.95;;;;;;;;;;7305089;19;140426;-85
2023/07/07 13:01:19;;;;;;;4.75;3.92;;;;;;;;;;7302530;19;142435;-82
2023/07/07 13:04:09;;;;;;;4.97;3.65;;;;;;;;;;7303127;19;141423;-82
2023/07/07 13:06:59;;;;;;;5.13;4.10;;;;;;;;;;7303041;19;140920;-82
2023/07/07 13:09:35;;;;;;;5.00;3.90;;;;;;;;;;7303184;19;140859;-82
2023/07/07 13:12:41;;;;;;;4.55;4.10;;;;;;;;;;7302993;19;140748;-81
2023/07/07 13:15:21;;;;;;;5.00;4.15;;;;;;;;;;7303401;19;141413;-79
2023/07/07 13:17:51;;;;;;;4.67;4.23;;;;;;;;;;7303049;19;141473;-79
2023/07/07 13:20:19;;;;;;;;;;;;;;;;;;7304036;19;140827;-79
2023/07/07 13:23:19;;;;;;;9.48;4.47;;;;;;;;;;7299609;19;143741;-82
2023/07/07 13:25:47;;;;;;;5.85;4.63;;;;;;;;;;7301547;19;141380;-80
2023/07/07 13:28:21;;;;;;;5.05;4.50;;;;;;;;;;7302503;19;140900;-78
2023/07/07 13:30:58;;;;;;;6.80;4.55;;;;;;;;;;7302365;19;140745;-78
2023/07/07 13:33:30;;;;;;;5.05;4.45;;;;;;;;;;7303422;19;140992;-78
2023/07/07 13:36:01;;;;;;;7.70;4.60;;;;;;;;;;7302064;19;140753;-78
2023/07/07 13:38:34;;;;;;;5.40;4.18;;;;;;;;;;7300628;19;140642;-75
2023/07/07 13:41:06;;;;;;;5.60;4.15;;;;;;;;;;7302610;19;141001;-76
2023/07/07 13:43:45;;;;;;;7.97;5.30;;;;;;;;;;7304290;19;142220;-74
2023/07/07 13:46:33;;;;;;;7.77;5.20;;;;;;;;;;7302862;19;142265;-79
2023/07/07 13:49:05;;;;;;;6.68;4.65;;;;;;;;;;7302756;19;140816;-77
2023/07/07 13:51:38;;;;;;;9.02;5.13;;;;;;;;;;7301863;19;140730;-77
2023/07/07 13:54:11;;;;;;;7.32;5.00;;;;;;;;;;7302371;19;141265;-76
2023/07/07 13:56:47;;;;;;;8.73;4.93;;;;;;;;;;7302822;19;142059;-76
2023/07/07 13:59:18;;;;;;;8.45;5.30;;;;;;;;;;7302177;19;141267;-79
2023/07/07 14:01:46;;;;;;;7.50;5.00;;;;;;;;;;7303433;19;141780;-77
2023/07/07 14:04:21;;;;;;;6.00;4.40;;;;;;;;;;7302741;19;140642;-75
2023/07/07 14:06:48;;;;;;;7.70;4.82;;;;;;;;;;7301581;19;142421;-78
2023/07/07 14:09:26;;;;;;;6.43;4.60;;;;;;;;;;7301585;19;140620;-72
2023/07/07 14:11:56;;;;;;;6.55;4.82;;;;;;;;;;7302967;19;140621;-72
2023/07/07 14:14:24;;;;;;;6.50;4.60;;;;;;;;;;7302211;19;140444;-72
2023/07/07 14:17:04;;;;;;;7.93;4.47;;;;;;;;;;7301493;19;141887;-72
2023/07/07 14:19:35;;;;;;;;;;;;;;;;;;7302363;19;140523;-72
2023/07/07 14:22:04;;;;;;;;;;;;;;;;;;7302838;19;143674;-72
2023/07/07 14:24:31;;;;;;;7.07;4.43;;;;;;;;;;7300703;19;150764;-72
2023/07/07 14:26:59;;;;;;;8.20;4.72;;;;;;;;;;7299539;19;141987;-72
2023/07/07 14:29:38;;;;;;;9.02;4.65;;;;;;;;;;7302039;19;140503;-74
2023/07/07 14:32:12;;;;;;;7.10;4.47;;;;;;;;;;7301856;19;140444;-73
2023/07/07 14:34:48;;;;;;;8.52;4.50;;;;;;;;;;7300234;19;141518;-75
2023/07/07 14:37:20;;;;;;;10.25;5.90;;;;;;;;;;7299957;19;141399;-74
2023/07/07 14:39:50;;;;;;;7.07;4.97;;;;;;;;;;7301578;19;140783;-73
2023/07/07 14:42:21;;;;;;;6.45;4.32;;;;;;;;;;7303586;19;140615;-73
2023/07/07 14:44:50;;;;;;;6.65;4.50;;;;;;;;;;7301351;19;140643;-74
2023/07/07 14:47:23;;;;;;;7.63;4.10;;;;;;;;;;7301177;19;142349;-73
2023/07/07 14:49:51;;;;;;;7.57;4.68;;;;;;;;;;7302174;19;140587;-74
2023/07/07 14:52:29;;;;;;;6.22;4.63;;;;;;;;;;7300425;19;140638;-75
2023/07/07 14:55:01;;;;;;;7.35;4.53;;;;;;;;;;7300639;19;140591;-73
2023/07/07 14:57:29;;;;;;;7.32;4.47;;;;;;;;;;7300542;19;141785;-73
2023/07/07 14:59:56;;;;;;;8.02;4.22;;;;;;;;;;7300644;19;140810;-74
2023/07/07 15:02:32;;;;;;;7.00;4.35;;;;;;;;;;7301049;19;140626;-74
2023/07/07 15:05:19;;;;;;;6.22;4.35;;;;;;;;;;7301133;19;141736;-74
2023/07/07 15:07:48;;;;;;;6.75;3.95;;;;;;;;;;7299516;19;141528;-74
2023/07/07 15:10:17;;;;;;;6.53;4.25;;;;;;;;;;7300834;19;140764;-74
2023/07/07 15:12:47;;;;;;;5.68;4.28;;;;;;;;;;7300942;19;140582;-74